createdAt,value
2023-04-03T00:01:53.484Z,101432.06
2023-04-03T00:04:20.844Z,101431.97
2023-04-03T00:06:49.782Z,101433.16
2023-04-03T00:09:17.302Z,101440.44
2023-04-03T00:14:42.831Z,101431.16
2023-04-03T00:17:10.249Z,101442.91
2023-04-03T00:19:37.647Z,101443.06
2023-04-03T00:22:06.323Z,101444.69
2023-04-03T00:24:33.607Z,101449.09
2023-04-03T00:27:00.883Z,101456.25
2023-04-03T00:32:16.794Z,101457.78
2023-04-03T00:34:44.132Z,101462.59
2023-04-03T00:37:12.805Z,101458.13
2023-04-03T00:39:40.256Z,101460.16
2023-04-03T00:45:25.681Z,101454.22
2023-04-03T00:47:53.165Z,101465.44
2023-04-03T00:50:20.957Z,101455.75
2023-04-03T00:55:57.051Z,101456.50
2023-04-03T00:58:26.161Z,101464.38
2023-04-03T01:03:52.048Z,101468.84
2023-04-03T01:06:21.135Z,101470.78
2023-04-03T01:08:49.944Z,101476.56
2023-04-03T01:11:19.621Z,101477.59
2023-04-03T01:16:38.297Z,101470.97
2023-04-03T01:19:07.019Z,101470.03
2023-04-03T01:21:59.867Z,101470.34
2023-04-03T01:24:29.912Z,101466.28
2023-04-03T01:26:58.856Z,101471.41
2023-04-03T01:29:26.794Z,101469.50
2023-04-03T01:31:56.282Z,101472.13
2023-04-03T01:34:24.222Z,101467.47
2023-04-03T01:39:42.085Z,101472.03
2023-04-03T01:42:09.564Z,101479.88
2023-04-03T01:44:40.824Z,101475.19
2023-04-03T01:47:09.540Z,101478.50
2023-04-03T01:52:36.768Z,101472.03
2023-04-03T01:55:04.195Z,101479.56
2023-04-03T01:57:31.690Z,101489.06
2023-04-03T01:59:59.249Z,101487.75
2023-04-03T02:02:28.073Z,101487.44
2023-04-03T02:04:55.723Z,101487.13
2023-04-03T02:07:23.334Z,101485.38
2023-04-03T02:09:50.871Z,101481.06
2023-04-03T02:12:18.226Z,101487.81
2023-04-03T02:14:46.215Z,101483.50
2023-04-03T02:20:13.341Z,101487.50
2023-04-03T02:22:40.915Z,101491.09
2023-04-03T02:25:08.516Z,101489.66
2023-04-03T02:27:36.390Z,101484.31
2023-04-03T02:30:03.742Z,101491.53
2023-04-03T02:35:21.502Z,101487.91
2023-04-03T02:40:48.861Z,101489.75
2023-04-03T02:43:16.475Z,101491.94
2023-04-03T02:45:44.242Z,101490.31
2023-04-03T02:48:12.854Z,101497.44
2023-04-03T02:50:41.502Z,101493.00
2023-04-03T02:53:09.177Z,101498.75
2023-04-03T02:55:36.659Z,101490.56
2023-04-03T02:58:04.395Z,101495.66
2023-04-03T03:00:32.698Z,101492.41
2023-04-03T03:03:00.635Z,101495.50
2023-04-03T03:05:28.421Z,101498.63
2023-04-03T03:10:46.114Z,101506.91
2023-04-03T03:13:13.418Z,101498.38
2023-04-03T03:15:41.104Z,101506.28
2023-04-03T03:18:08.514Z,101494.38
2023-04-03T03:20:36.247Z,101495.53
2023-04-03T03:23:04.038Z,101499.34
2023-04-03T03:25:31.451Z,101500.84
2023-04-03T03:28:00.363Z,101509.19
2023-04-03T03:30:27.692Z,101515.25
2023-04-03T03:35:44.089Z,101509.38
2023-04-03T03:38:11.513Z,101513.00
2023-04-03T03:40:39.375Z,101516.28
2023-04-03T03:43:09.019Z,101511.47
2023-04-03T03:48:34.830Z,101512.53
2023-04-03T03:51:02.686Z,101519.91
2023-04-03T03:53:34.323Z,101514.66
2023-04-03T03:56:06.485Z,101513.91
2023-04-03T03:58:36.540Z,101521.78
2023-04-03T04:01:04.052Z,101514.34
2023-04-03T04:03:35.289Z,101523.09
2023-04-03T04:06:03.217Z,101514.84
2023-04-03T04:08:30.893Z,101513.09
2023-04-03T04:10:58.484Z,101521.00
2023-04-03T04:13:25.876Z,101518.63
2023-04-03T04:15:56.235Z,101522.97
2023-04-03T04:18:24.725Z,101530.56
2023-04-03T04:20:52.155Z,101526.97
2023-04-03T04:23:20.089Z,101525.50
2023-04-03T04:25:50.619Z,101533.03
2023-04-03T04:31:12.645Z,101533.72
2023-04-03T04:36:37.855Z,101530.94
2023-04-03T04:39:06.082Z,101533.53
2023-04-03T04:41:33.582Z,101538.69
2023-04-03T04:44:02.117Z,101536.34
2023-04-03T04:46:30.950Z,101543.72
2023-04-03T04:48:59.941Z,101541.03
2023-04-03T04:51:35.162Z,101547.47
2023-04-03T04:54:09.016Z,101546.16
2023-04-03T04:56:36.754Z,101540.09
2023-04-03T04:59:05.030Z,101540.25
2023-04-03T05:01:33.717Z,101538.38
2023-04-03T05:04:10.069Z,101542.16
2023-04-03T05:06:37.535Z,101553.66
2023-04-03T05:09:09.786Z,101559.38
2023-04-03T05:14:36.822Z,101557.09
2023-04-03T05:17:09.082Z,101563.47
2023-04-03T05:19:40.747Z,101563.91
2023-04-03T05:22:09.611Z,101566.72
2023-04-03T05:24:37.193Z,101575.16
2023-04-03T05:27:05.407Z,101560.28
2023-04-03T05:29:35.635Z,101565.38
2023-04-03T05:32:04.672Z,101572.97
2023-04-03T05:37:32.138Z,101571.84
2023-04-03T05:39:59.880Z,101571.03
2023-04-03T05:42:28.157Z,101585.13
2023-04-03T05:44:55.815Z,101583.91
2023-04-03T05:47:23.391Z,101585.06
2023-04-03T05:52:51.392Z,101596.25
2023-04-03T05:55:19.016Z,101596.69
2023-04-03T05:57:46.366Z,101594.50
2023-04-03T06:03:12.980Z,101586.00
2023-04-03T06:05:41.134Z,101589.47
2023-04-03T06:08:10.083Z,101587.09
2023-04-03T06:10:37.564Z,101592.66
2023-04-03T06:16:04.874Z,101608.69
2023-04-03T06:21:29.830Z,101619.41
2023-04-03T06:23:58.587Z,101625.84
2023-04-03T06:26:25.914Z,101621.69
2023-04-03T06:31:41.787Z,101613.44
2023-04-03T06:34:09.658Z,101618.91
2023-04-03T06:36:37.239Z,101617.03
2023-04-03T06:39:05.929Z,101605.34
2023-04-03T06:41:34.255Z,101609.09
2023-04-03T06:44:03.617Z,101612.47
2023-04-03T06:46:31.191Z,101606.88
2023-04-03T06:48:58.564Z,101612.88
2023-04-03T06:51:26.954Z,101609.81
2023-04-03T06:53:54.771Z,101613.81
2023-04-03T06:56:23.801Z,101613.44
2023-04-03T06:58:51.793Z,101613.41
2023-04-03T07:01:20.022Z,101617.88
2023-04-03T07:03:48.840Z,101615.19
2023-04-03T07:08:52.956Z,101620.59
2023-04-03T07:11:21.275Z,101623.31
2023-04-03T07:16:40.696Z,101641.44
2023-04-03T07:19:09.850Z,101638.63
2023-04-03T07:21:37.368Z,101639.69
2023-04-03T07:24:04.728Z,101639.09
2023-04-03T07:26:32.422Z,101648.44
2023-04-03T07:29:00.599Z,101645.09
2023-04-03T07:34:28.153Z,101655.53
2023-04-03T07:36:55.712Z,101658.09
2023-04-03T07:39:23.107Z,101663.56
2023-04-03T07:41:50.590Z,101651.78
2023-04-03T07:47:18.128Z,101660.66
2023-04-03T07:49:46.954Z,101668.03
2023-04-03T07:52:15.609Z,101669.47
2023-04-03T07:54:43.094Z,101671.78
2023-04-03T07:57:10.888Z,101675.09
2023-04-03T08:02:25.558Z,101672.25
2023-04-03T08:04:54.333Z,101678.25
2023-04-03T08:07:23.038Z,101679.47
2023-04-03T08:09:50.744Z,101670.38
2023-04-03T08:12:18.059Z,101671.13
2023-04-03T08:14:45.361Z,101676.81
2023-04-03T08:17:13.472Z,101674.16
2023-04-03T08:20:07.314Z,101685.38
2023-04-03T08:22:35.946Z,101682.09
2023-04-03T08:27:51.973Z,101679.66
2023-04-03T08:30:19.420Z,101676.81
2023-04-03T08:32:46.873Z,101675.69
2023-04-03T08:35:14.294Z,101678.28
2023-04-03T08:37:43.168Z,101687.97
2023-04-03T08:40:15.306Z,101675.81
2023-04-03T08:42:44.323Z,101686.09
2023-04-03T08:48:12.072Z,101687.13
2023-04-03T08:50:40.095Z,101676.59
2023-04-03T08:53:08.794Z,101683.69
2023-04-03T08:55:36.734Z,101686.03
2023-04-03T08:58:05.226Z,101683.34
2023-04-03T09:00:34.227Z,101681.59
2023-04-03T09:03:01.555Z,101671.53
2023-04-03T09:05:32.113Z,101671.22
2023-04-03T09:08:00.177Z,101671.16
2023-04-03T09:10:32.177Z,101671.00
2023-04-03T09:15:48.833Z,101677.59
2023-04-03T09:18:17.549Z,101672.00
2023-04-03T09:23:41.698Z,101665.47
2023-04-03T09:26:12.041Z,101663.16
2023-04-03T09:28:49.328Z,101662.03
2023-04-03T09:31:22.481Z,101672.00
2023-04-03T09:33:49.959Z,101667.59
2023-04-03T09:39:12.556Z,101666.47
2023-04-03T09:41:41.220Z,101659.81
2023-04-03T09:44:19.875Z,101664.72
2023-04-03T09:46:47.335Z,101657.75
2023-04-03T09:49:14.962Z,101672.38
2023-04-03T09:54:36.870Z,101653.41
2023-04-03T10:00:05.740Z,101658.03
2023-04-03T10:02:37.536Z,101650.50
2023-04-03T10:05:09.869Z,101648.50
2023-04-03T10:07:41.274Z,101650.97
2023-04-03T10:10:19.072Z,101657.00
2023-04-03T10:15:38.401Z,101638.47
2023-04-03T10:18:17.953Z,101645.06
2023-04-03T10:20:51.438Z,101639.16
2023-04-03T10:23:21.241Z,101633.56
2023-04-03T10:25:50.981Z,101629.56
2023-04-03T10:28:19.534Z,101636.19
2023-04-03T10:30:50.855Z,101624.63
2023-04-03T10:33:22.886Z,101628.53
2023-04-03T10:35:52.397Z,101624.28
2023-04-03T10:38:21.313Z,101619.69
2023-04-03T10:40:49.840Z,101620.75
2023-04-03T10:43:18.750Z,101618.28
2023-04-03T10:45:54.099Z,101620.78
2023-04-03T10:51:13.507Z,101622.63
2023-04-03T10:53:41.164Z,101625.34
2023-04-03T10:56:10.025Z,101625.28
2023-04-03T10:58:38.393Z,101627.03
2023-04-03T11:01:09.969Z,101630.63
2023-04-03T11:03:38.810Z,101620.38
2023-04-03T11:09:07.710Z,101626.59
2023-04-03T11:11:36.618Z,101617.66
2023-04-03T11:14:04.491Z,101597.38
2023-04-03T11:16:37.854Z,101601.25
2023-04-03T11:19:13.213Z,101612.91
2023-04-03T11:21:41.746Z,101608.72
2023-04-03T11:24:12.377Z,101598.84
2023-04-03T11:26:40.931Z,101585.91
2023-04-03T11:29:09.149Z,101594.81
2023-04-03T11:31:41.365Z,101590.78
2023-04-03T11:36:57.056Z,101600.09
2023-04-03T11:39:25.172Z,101595.38
2023-04-03T11:42:00.232Z,101597.56
2023-04-03T11:44:37.258Z,101588.03
2023-04-03T11:47:06.636Z,101598.75
2023-04-03T11:49:52.730Z,101588.53
2023-04-03T11:52:35.313Z,101589.00
2023-04-03T11:55:02.733Z,101589.38
2023-04-03T11:58:03.225Z,101582.88
2023-04-03T12:00:50.405Z,101573.69
2023-04-03T12:03:51.089Z,101571.09
2023-04-03T12:06:37.708Z,101575.56
2023-04-03T12:09:07.912Z,101568.03
2023-04-03T12:14:33.766Z,101556.19
2023-04-03T12:17:01.612Z,101554.56
2023-04-03T12:19:41.222Z,101557.88
2023-04-03T12:22:17.070Z,101542.44
2023-04-03T12:27:36.557Z,101545.00
2023-04-03T12:30:10.693Z,101534.41
2023-04-03T12:32:42.854Z,101537.53
2023-04-03T12:35:16.810Z,101544.41
2023-04-03T12:37:48.522Z,101538.38
2023-04-03T12:40:17.959Z,101534.53
2023-04-03T12:45:45.724Z,101532.13
2023-04-03T12:48:17.452Z,101531.50
2023-04-03T12:50:45.842Z,101522.97
2023-04-03T12:53:14.330Z,101522.72
2023-04-03T12:55:41.688Z,101533.09
2023-04-03T12:58:16.051Z,101520.53
2023-04-03T13:00:44.678Z,101515.63
2023-04-03T13:03:21.437Z,101504.84
2023-04-03T13:05:48.827Z,101500.66
2023-04-03T13:08:16.825Z,101500.88
2023-04-03T13:10:50.262Z,101498.09
2023-04-03T13:13:17.621Z,101501.88
2023-04-03T13:15:47.710Z,101500.22
2023-04-03T13:18:32.052Z,101491.81
2023-04-03T13:21:01.807Z,101491.16
2023-04-03T13:26:18.147Z,101478.91
2023-04-03T13:28:45.673Z,101483.47
2023-04-03T13:31:20.515Z,101478.78
2023-04-03T13:33:54.379Z,101485.38
2023-04-03T13:39:23.365Z,101481.19
2023-04-03T13:41:51.330Z,101474.88
2023-04-03T13:44:19.591Z,101479.03
2023-04-03T13:46:48.442Z,101461.75
2023-04-03T13:49:19.667Z,101465.00
2023-04-03T13:51:54.142Z,101466.84
2023-04-03T13:54:32.326Z,101467.09
2023-04-03T13:57:00.687Z,101465.56
2023-04-03T13:59:29.138Z,101452.16
2023-04-03T14:02:11.215Z,101456.38
2023-04-03T14:04:47.130Z,101458.56
2023-04-03T14:07:14.712Z,101461.50
2023-04-03T14:12:37.091Z,101455.34
2023-04-03T14:18:13.642Z,101450.06
2023-04-03T14:20:41.341Z,101446.63
2023-04-03T14:23:08.664Z,101439.28
2023-04-03T14:28:19.924Z,101435.69
2023-04-03T14:30:47.982Z,101434.78
2023-04-03T14:33:17.874Z,101437.13
2023-04-03T14:35:45.355Z,101432.69
2023-04-03T14:38:23.643Z,101437.63
2023-04-03T14:43:39.908Z,101422.38
2023-04-03T14:46:07.575Z,101417.97
2023-04-03T14:48:36.319Z,101423.47
2023-04-03T14:51:06.042Z,101406.84
2023-04-03T14:56:03.994Z,101401.25
2023-04-03T14:58:33.005Z,101411.00
2023-04-03T15:04:10.873Z,101403.00
2023-04-03T15:06:38.281Z,101394.25
2023-04-03T15:09:05.581Z,101401.41
2023-04-03T15:11:32.871Z,101407.78
2023-04-03T15:14:00.476Z,101404.97
2023-04-03T15:16:27.874Z,101407.63
2023-04-03T15:18:55.194Z,101409.28
2023-04-03T15:21:23.844Z,101415.50
2023-04-03T15:23:51.141Z,101405.00
2023-04-03T15:26:18.437Z,101397.34
2023-04-03T15:31:34.831Z,101402.81
2023-04-03T15:34:02.192Z,101415.47
2023-04-03T15:39:29.102Z,101399.25
2023-04-03T15:41:57.648Z,101401.38
2023-04-03T15:44:24.934Z,101402.22
2023-04-03T15:46:52.570Z,101399.81
2023-04-03T15:49:20.171Z,101397.75
2023-04-03T15:54:39.570Z,101389.34
2023-04-03T15:57:06.884Z,101383.69
2023-04-03T15:59:34.360Z,101385.44
2023-04-03T16:02:02.370Z,101374.09
2023-04-03T16:04:29.783Z,101383.31
2023-04-03T16:09:57.077Z,101387.13
2023-04-03T16:12:24.401Z,101389.47
2023-04-03T16:17:45.339Z,101396.53
2023-04-03T16:20:13.103Z,101396.03
2023-04-03T16:22:40.618Z,101393.41
2023-04-03T16:28:11.059Z,101388.72
2023-04-03T16:30:38.372Z,101392.03
2023-04-03T16:33:06.053Z,101386.94
2023-04-03T16:35:33.370Z,101395.91
2023-04-03T16:38:00.674Z,101386.19
2023-04-03T16:40:28.014Z,101391.31
2023-04-03T16:45:57.332Z,101383.94
2023-04-03T16:48:24.775Z,101382.09
2023-04-03T16:50:54.119Z,101386.09
2023-04-03T16:53:21.450Z,101381.75
2023-04-03T16:55:48.747Z,101384.53
2023-04-03T16:58:16.511Z,101381.84
2023-04-03T17:00:44.032Z,101372.47
2023-04-03T17:03:12.680Z,101376.56
2023-04-03T17:05:40.493Z,101373.19
2023-04-03T17:08:08.045Z,101376.56
2023-04-03T17:10:36.303Z,101375.50
2023-04-03T17:13:03.699Z,101367.94
2023-04-03T17:15:30.996Z,101377.16
2023-04-03T17:17:58.376Z,101372.56
2023-04-03T17:20:50.019Z,101376.06
2023-04-03T17:23:18.643Z,101374.66
2023-04-03T17:25:46.114Z,101373.00
2023-04-03T17:28:14.408Z,101381.00
2023-04-03T17:30:41.808Z,101383.78
2023-04-03T17:33:09.396Z,101385.13
2023-04-03T17:38:27.105Z,101385.72
2023-04-03T17:40:57.036Z,101395.66
2023-04-03T17:43:24.398Z,101386.72
2023-04-03T17:45:52.000Z,101391.56
2023-04-03T17:48:19.619Z,101388.78
2023-04-03T17:50:47.046Z,101386.50
2023-04-03T17:53:15.034Z,101391.63
2023-04-03T17:55:43.731Z,101397.09
2023-04-03T17:58:11.249Z,101396.28
2023-04-03T18:03:36.791Z,101404.78
2023-04-03T18:06:04.402Z,101409.84
2023-04-03T18:08:32.365Z,101401.94
2023-04-03T18:11:01.210Z,101405.75
2023-04-03T18:13:28.535Z,101412.06
2023-04-03T18:19:06.922Z,101404.56
2023-04-03T18:24:27.951Z,101403.63
2023-04-03T18:26:57.128Z,101408.06
2023-04-03T18:29:24.792Z,101412.66
2023-04-03T18:31:53.014Z,101407.59
2023-04-03T18:34:20.345Z,101414.44
2023-04-03T18:36:49.244Z,101413.34
2023-04-03T18:39:16.555Z,101415.13
2023-04-03T18:41:43.919Z,101418.00
2023-04-03T18:44:13.460Z,101414.97
2023-04-03T18:46:40.913Z,101421.63
2023-04-03T18:52:06.759Z,101421.50
2023-04-03T18:54:34.356Z,101430.88
2023-04-03T18:57:01.777Z,101428.94
2023-04-03T18:59:30.624Z,101428.91
2023-04-03T19:01:58.020Z,101422.44
2023-04-03T19:04:25.387Z,101427.66
2023-04-03T19:06:53.288Z,101436.63
2023-04-03T19:09:20.652Z,101430.34
2023-04-03T19:11:47.979Z,101429.06
2023-04-03T19:14:16.973Z,101433.94
2023-04-03T19:16:46.284Z,101434.50
2023-04-03T19:19:13.752Z,101435.63
2023-04-03T19:21:41.970Z,101435.94
2023-04-03T19:24:09.562Z,101432.34
2023-04-03T19:26:36.905Z,101430.75
2023-04-03T19:29:04.482Z,101432.53
2023-04-03T19:31:33.349Z,101425.38
2023-04-03T19:34:02.477Z,101428.56
2023-04-03T19:36:29.982Z,101432.75
2023-04-03T19:38:57.401Z,101429.34
2023-04-03T19:41:25.097Z,101427.03
2023-04-03T19:43:53.008Z,101430.47
2023-04-03T19:49:20.389Z,101442.81
2023-04-03T19:51:47.764Z,101441.81
2023-04-03T19:54:15.238Z,101440.81
2023-04-03T19:56:42.554Z,101443.66
2023-04-03T19:59:09.865Z,101438.00
2023-04-03T20:01:37.603Z,101452.59
2023-04-03T20:04:05.298Z,101439.53
2023-04-03T20:06:34.051Z,101445.59
2023-04-03T20:09:01.768Z,101444.94
2023-04-03T20:11:29.078Z,101441.88
2023-04-03T20:13:56.543Z,101446.97
2023-04-03T20:16:25.511Z,101442.47
2023-04-03T20:21:43.123Z,101435.28
2023-04-03T20:24:12.111Z,101444.09
2023-04-03T20:26:45.989Z,101440.03
2023-04-03T20:29:14.515Z,101442.25
2023-04-03T20:34:39.305Z,101443.81
2023-04-03T20:40:06.912Z,101446.94
2023-04-03T20:42:34.251Z,101442.28
2023-04-03T20:45:01.568Z,101440.19
2023-04-03T20:47:28.927Z,101445.91
2023-04-03T20:49:56.564Z,101436.97
2023-04-03T20:52:23.858Z,101433.75
2023-04-03T20:54:52.614Z,101429.19
2023-04-03T20:57:21.638Z,101429.91
2023-04-03T20:59:48.968Z,101429.03
2023-04-03T21:02:16.501Z,101434.69
2023-04-03T21:04:46.430Z,101432.28
2023-04-03T21:07:32.657Z,101426.13
2023-04-03T21:10:18.484Z,101434.31
2023-04-03T21:13:04.315Z,101421.97
2023-04-03T21:15:59.610Z,101428.38
2023-04-03T21:18:40.084Z,101431.59
2023-04-03T21:21:07.409Z,101422.97
2023-04-03T21:23:34.726Z,101421.59
2023-04-03T21:26:03.251Z,101420.09
2023-04-03T21:28:30.571Z,101417.13
2023-04-03T21:30:57.952Z,101414.88
2023-04-03T21:33:25.263Z,101416.19
2023-04-03T21:35:57.873Z,101412.41
2023-04-03T21:41:13.744Z,101411.25
2023-04-03T21:43:41.339Z,101407.19
2023-04-03T21:46:08.699Z,101404.66
2023-04-03T21:48:36.685Z,101405.16
2023-04-03T21:54:05.138Z,101412.25
2023-04-03T21:56:32.459Z,101396.50
2023-04-03T21:59:01.538Z,101404.38
2023-04-03T22:01:29.803Z,101400.22
2023-04-03T22:03:58.077Z,101396.53
2023-04-03T22:06:25.559Z,101394.84
2023-04-03T22:08:52.982Z,101394.47
2023-04-03T22:11:22.819Z,101392.66
2023-04-03T22:13:52.067Z,101389.91
2023-04-03T22:19:17.764Z,101386.31
2023-04-03T22:21:45.158Z,101383.00
2023-04-03T22:24:12.640Z,101386.53
2023-04-03T22:26:44.237Z,101390.44
2023-04-03T22:32:09.739Z,101390.78
2023-04-03T22:34:38.022Z,101393.09
2023-04-03T22:37:05.408Z,101379.22
2023-04-03T22:39:32.765Z,101386.75
2023-04-03T22:42:01.902Z,101387.31
2023-04-03T22:44:34.979Z,101393.44
2023-04-03T22:49:59.238Z,101403.56
2023-04-03T22:52:26.524Z,101406.50
2023-04-03T22:54:53.833Z,101393.81
2023-04-03T23:00:12.743Z,101403.19
2023-04-03T23:02:40.093Z,101398.19
2023-04-03T23:05:08.142Z,101394.66
2023-04-03T23:07:35.618Z,101396.31
2023-04-03T23:10:02.925Z,101404.38
2023-04-03T23:12:30.365Z,101400.00
2023-04-03T23:17:50.156Z,101400.72
2023-04-03T23:20:17.697Z,101394.50
2023-04-03T23:22:45.472Z,101402.38
2023-04-03T23:25:12.776Z,101399.44
2023-04-03T23:27:40.327Z,101402.59
2023-04-03T23:30:08.388Z,101401.06
2023-04-03T23:32:35.855Z,101404.22
2023-04-03T23:38:03.061Z,101406.06
2023-04-03T23:40:30.375Z,101404.22
2023-04-03T23:42:57.692Z,101405.75
2023-04-03T23:45:25.075Z,101403.13
2023-04-03T23:50:50.730Z,101408.38
2023-04-03T23:53:19.375Z,101409.59
2023-04-03T23:55:47.024Z,101407.16
2023-04-03T23:58:14.400Z,101407.25
